Hlavní strana
METAR-TAF:

METAR-TAF

Letiště :

Santa Maria, Azory, Portugalsko

zeměpisná šířka: 36-58N, zeměpisná délka: 025-10W, výška: 100 m

Aktuální stav počasí

Zpráva byla vytvořena před 16 minutami, v 20:00 UTC
Severoseverovýchodní vítr 8 kt, proměnlivý mezi severním a východoseverovýchodním
Teplota 16°C
Vlhkost vzduchu 68%
Tlak 1030 hPa
Viditelnost 10 km a více
Skoro jasno ve výšce 2900 ft

METAR: LPAZ 052000Z 03008KT 350V060 9999 FEW029 16/10 Q1030

Čas: 19:16 (20:16 UTC)

Předpověď počasí

Zpráva byla vytvořena před 3 hodinami a 16 minutami, v 17:00 UTC
Předpověď platná od 05 v 18 UTC do 06 v 24 UTC
Severoseverovýchodní vítr 8 kt
Viditelnost 10 km a více
Skoro jasno ve výšce 2500 ft
Oblačno až skoro zataženo ve výšce 3500 ft
Dočasný
od 05 v 18 UTC do 06 v 24 UTC
Polojasno ve výšce 2000 ft
Změna
od 06 v 15 UTC do 06 v 18 UTC
vítr z různých směrů 5 kt

TAF: LPAZ 051700Z 0518/0624 03008KT 9999 FEW025 BKN035 TEMPO 0518/0624 SCT020 BECMG 0615/0618 VRB05KT

Stav a předpovědi počasí z více než 4 000 letišť (zprávy METAR a TAF).

Červené a žluté tečky na mapě představují dostupné meteorologické stanice.

Když kurzor umístíte na tečku, zobrazí se název stanice.

Pak kliknutím zobrazíte stav a předpověď počasí.

Chcete-li změnit mapu, kliknutím na zelené tlačítko se znaménkem +mapu přiblížíte, kliknutím na zelené tlačítko se znaménkem – mapu oddálíte a kliknutím na zelené šipky přejdete na sousední mapy.


METAR-TAF: